createdAt,value
2023-10-05T00:00:25.898Z,10.9
2023-10-05T00:01:32.121Z,10.9
2023-10-05T00:02:38.177Z,10.9
2023-10-05T00:03:43.352Z,10.9
2023-10-05T00:04:49.483Z,10.9
2023-10-05T00:05:55.652Z,10.9
2023-10-05T00:07:01.786Z,10.9
2023-10-05T00:08:07.909Z,10.9
2023-10-05T00:09:14.125Z,10.9
2023-10-05T00:10:20.195Z,10.9
2023-10-05T00:11:26.424Z,10.9
2023-10-05T00:12:32.488Z,10.9
2023-10-05T00:14:44.791Z,10.9
2023-10-05T00:15:50.904Z,10.9
2023-10-05T00:16:57.119Z,10.9
2023-10-05T00:18:02.258Z,10.9
2023-10-05T00:19:08.356Z,10.9
2023-10-05T00:20:14.506Z,10.9
2023-10-05T00:21:20.650Z,10.9
2023-10-05T00:22:26.787Z,10.9
2023-10-05T00:23:32.931Z,11
2023-10-05T00:24:39.065Z,10.9
2023-10-05T00:25:45.351Z,10.9
2023-10-05T00:26:51.379Z,10.9
2023-10-05T00:27:57.531Z,10.9
2023-10-05T00:29:03.669Z,10.9
2023-10-05T00:30:09.792Z,10.9
2023-10-05T00:31:15.927Z,10.9
2023-10-05T00:32:21.087Z,10.9
2023-10-05T00:33:27.237Z,10.9
2023-10-05T00:34:33.395Z,10.9
2023-10-05T00:35:39.517Z,10.9
2023-10-05T00:36:45.691Z,10.9
2023-10-05T00:37:51.818Z,10.9
2023-10-05T00:38:57.941Z,10.9
2023-10-05T00:40:04.086Z,10.9
2023-10-05T00:41:10.238Z,10.9
2023-10-05T00:43:22.546Z,10.8
2023-10-05T00:44:28.657Z,10.8
2023-10-05T00:45:34.809Z,10.8
2023-10-05T00:46:39.961Z,10.7
2023-10-05T00:47:46.109Z,10.7
2023-10-05T00:48:52.250Z,10.6
2023-10-05T00:49:58.391Z,10.6
2023-10-05T00:51:04.559Z,10.6
2023-10-05T00:52:10.798Z,10.6
2023-10-05T00:53:16.943Z,10.6
2023-10-05T00:54:23.075Z,10.6
2023-10-05T00:55:29.228Z,10.6
2023-10-05T00:58:47.710Z,10.6
2023-10-05T00:59:52.818Z,10.6
2023-10-05T01:00:57.980Z,10.6
2023-10-05T01:02:04.278Z,10.6
2023-10-05T01:03:10.433Z,10.6
2023-10-05T01:04:16.563Z,10.6
2023-10-05T01:05:22.714Z,10.6
2023-10-05T01:06:28.860Z,10.6
2023-10-05T01:07:35.025Z,10.6
2023-10-05T01:08:41.152Z,10.6
2023-10-05T01:09:47.272Z,10.6
2023-10-05T01:10:52.478Z,10.6
2023-10-05T01:11:57.696Z,10.6
2023-10-05T01:13:03.793Z,10.6
2023-10-05T01:14:09.925Z,10.6
2023-10-05T01:15:16.124Z,10.6
2023-10-05T01:16:22.199Z,10.6
2023-10-05T01:17:28.367Z,10.6
2023-10-05T01:18:34.542Z,10.6
2023-10-05T01:19:40.622Z,10.6
2023-10-05T01:20:46.774Z,10.6
2023-10-05T01:21:52.916Z,10.6
2023-10-05T01:22:59.055Z,10.6
2023-10-05T01:24:05.208Z,10.5
2023-10-05T01:25:11.339Z,10.5
2023-10-05T01:26:16.526Z,10.5
2023-10-05T01:27:22.687Z,10.6
2023-10-05T01:28:28.784Z,10.6
2023-10-05T01:29:34.937Z,10.5
2023-10-05T01:30:41.075Z,10.5
2023-10-05T01:31:47.259Z,10.5
2023-10-05T01:32:52.403Z,10.5
2023-10-05T01:33:58.541Z,10.5
2023-10-05T01:35:04.680Z,10.5
2023-10-05T01:36:10.818Z,10.4
2023-10-05T01:37:16.968Z,10.4
2023-10-05T01:38:23.099Z,10.4
2023-10-05T01:39:29.260Z,10.4
2023-10-05T01:40:35.411Z,10.4
2023-10-05T01:41:41.531Z,10.4
2023-10-05T01:42:47.697Z,10.4
2023-10-05T01:43:53.821Z,10.4
2023-10-05T01:44:59.964Z,10.4
2023-10-05T01:46:06.114Z,10.3
2023-10-05T01:47:11.260Z,10.3
2023-10-05T01:48:17.477Z,10.3
2023-10-05T01:49:23.560Z,10.3
2023-10-05T01:50:29.719Z,10.3
2023-10-05T01:51:35.865Z,10.3
2023-10-05T01:52:42.035Z,10.3
2023-10-05T01:53:48.118Z,10.3
2023-10-05T01:54:54.260Z,10.3
2023-10-05T01:57:06.562Z,10.3
2023-10-05T01:58:12.696Z,10.3
2023-10-05T01:59:18.831Z,10.4
2023-10-05T02:00:25.085Z,10.4
2023-10-05T02:01:30.154Z,10.3
2023-10-05T02:02:36.278Z,10.3
2023-10-05T02:03:42.442Z,10.3
2023-10-05T02:04:48.618Z,10.3
2023-10-05T02:05:54.735Z,10.4
2023-10-05T02:07:00.857Z,10.4
2023-10-05T02:08:06.990Z,10.4
2023-10-05T02:09:13.237Z,10.3
2023-10-05T02:10:19.278Z,10.3
2023-10-05T02:11:25.427Z,10.3
2023-10-05T02:12:31.602Z,10.3
2023-10-05T02:13:37.701Z,10.2
2023-10-05T02:14:43.852Z,10.2
2023-10-05T02:15:49.002Z,10.2
2023-10-05T02:16:55.148Z,10.2
2023-10-05T02:18:01.311Z,10.2
2023-10-05T02:19:07.536Z,10.2
2023-10-05T02:20:13.602Z,10.2
2023-10-05T02:21:19.780Z,10.2
2023-10-05T02:22:25.881Z,10.2
2023-10-05T02:23:32.001Z,10.2
2023-10-05T02:24:38.319Z,10.1
2023-10-05T02:25:44.287Z,10.1
2023-10-05T02:26:50.450Z,10.1
2023-10-05T02:27:56.604Z,10.1
2023-10-05T02:29:02.706Z,10
2023-10-05T02:30:07.879Z,10
2023-10-05T02:31:14.030Z,10
2023-10-05T02:32:20.155Z,10
2023-10-05T02:33:26.323Z,9.9
2023-10-05T02:34:32.438Z,9.9
2023-10-05T02:35:38.582Z,9.9
2023-10-05T02:36:44.721Z,9.9
2023-10-05T02:38:57.005Z,9.9
2023-10-05T02:40:03.150Z,9.9
2023-10-05T02:41:09.297Z,9.8
2023-10-05T02:42:15.470Z,9.8
2023-10-05T02:43:21.585Z,9.8
2023-10-05T02:44:26.736Z,9.8
2023-10-05T02:45:32.875Z,9.8
2023-10-05T02:46:39.025Z,9.8
2023-10-05T02:47:45.245Z,9.8
2023-10-05T02:48:51.394Z,9.8
2023-10-05T02:49:57.480Z,9.8
2023-10-05T02:51:03.601Z,9.8
2023-10-05T02:52:09.762Z,9.8
2023-10-05T02:53:15.914Z,9.8
2023-10-05T02:54:22.088Z,9.8
2023-10-05T02:55:28.179Z,9.8
2023-10-05T02:56:34.320Z,9.8
2023-10-05T02:57:40.472Z,9.8
2023-10-05T02:58:45.624Z,9.8
2023-10-05T02:59:51.934Z,9.8
2023-10-05T03:00:57.914Z,9.8
2023-10-05T03:02:04.056Z,9.8
2023-10-05T03:03:10.192Z,9.8
2023-10-05T03:04:16.347Z,9.8
2023-10-05T03:05:22.501Z,9.9
2023-10-05T03:06:28.653Z,9.9
2023-10-05T03:07:34.763Z,9.9
2023-10-05T03:08:40.908Z,9.9
2023-10-05T03:09:47.071Z,9.9
2023-10-05T03:10:53.234Z,9.9
2023-10-05T03:11:59.354Z,9.9
2023-10-05T03:13:04.505Z,9.9
2023-10-05T03:14:10.640Z,9.9
2023-10-05T03:15:16.806Z,9.9
2023-10-05T03:16:22.926Z,9.9
2023-10-05T03:17:29.079Z,9.9
2023-10-05T03:18:35.214Z,9.9
2023-10-05T03:19:41.373Z,9.9
2023-10-05T03:20:47.511Z,9.9
2023-10-05T03:22:59.809Z,10
2023-10-05T03:24:05.936Z,10
2023-10-05T03:25:12.083Z,10
2023-10-05T03:26:18.223Z,10
2023-10-05T03:27:23.449Z,10
2023-10-05T03:28:29.546Z,10
2023-10-05T03:29:35.681Z,10
2023-10-05T03:30:41.827Z,10
2023-10-05T03:31:47.965Z,10
2023-10-05T03:32:54.097Z,10
2023-10-05T03:34:00.246Z,10
2023-10-05T03:35:06.492Z,10
2023-10-05T03:36:12.546Z,10
2023-10-05T03:37:18.667Z,10
2023-10-05T03:38:24.809Z,10
2023-10-05T03:39:30.957Z,10
2023-10-05T03:40:37.117Z,10
2023-10-05T03:41:42.259Z,10
2023-10-05T03:42:48.400Z,10
2023-10-05T03:43:54.564Z,10
2023-10-05T03:45:00.682Z,10
2023-10-05T03:46:06.839Z,10
2023-10-05T03:47:12.979Z,9.9
2023-10-05T03:48:19.120Z,9.9
2023-10-05T03:49:25.261Z,9.9
2023-10-05T03:50:31.403Z,9.9
2023-10-05T03:51:37.566Z,9.8
2023-10-05T03:52:43.692Z,9.8
2023-10-05T03:53:49.836Z,9.8
2023-10-05T03:54:55.977Z,9.8
2023-10-05T03:56:01.132Z,9.8
2023-10-05T03:57:07.278Z,9.8
2023-10-05T03:58:13.440Z,9.8
2023-10-05T03:59:19.581Z,9.8
2023-10-05T04:00:25.756Z,9.8
2023-10-05T04:01:31.846Z,9.8
2023-10-05T04:02:37.990Z,9.8
2023-10-05T04:03:44.244Z,9.8
2023-10-05T04:04:50.271Z,9.8
2023-10-05T04:07:02.566Z,9.8
2023-10-05T04:08:08.897Z,9.7
2023-10-05T04:09:15.017Z,9.7
2023-10-05T04:10:20.017Z,9.7
2023-10-05T04:11:26.160Z,9.7
2023-10-05T04:12:32.328Z,9.7
2023-10-05T04:13:38.442Z,9.7
2023-10-05T04:14:44.608Z,9.7
2023-10-05T04:15:50.842Z,9.7
2023-10-05T04:16:56.935Z,9.7
2023-10-05T04:18:03.038Z,9.7
2023-10-05T04:19:09.160Z,9.7
2023-10-05T04:20:15.306Z,9.6
2023-10-05T04:21:21.470Z,9.6
2023-10-05T04:22:27.587Z,9.6
2023-10-05T04:23:33.729Z,9.6
2023-10-05T04:24:38.888Z,9.6
2023-10-05T04:25:45.039Z,9.6
2023-10-05T04:26:51.178Z,9.6
2023-10-05T04:27:57.342Z,9.6
2023-10-05T04:29:03.478Z,9.6
2023-10-05T04:30:09.630Z,9.6
2023-10-05T04:31:15.756Z,9.6
2023-10-05T04:32:21.902Z,9.6
2023-10-05T04:33:28.074Z,9.6
2023-10-05T04:34:34.206Z,9.6
2023-10-05T04:35:40.323Z,9.6
2023-10-05T04:36:46.465Z,9.7
2023-10-05T04:37:52.606Z,9.7
2023-10-05T04:38:57.786Z,9.7
2023-10-05T04:40:03.915Z,9.7
2023-10-05T04:41:10.073Z,9.7
2023-10-05T04:42:16.187Z,9.7
2023-10-05T04:43:22.348Z,9.7
2023-10-05T04:44:28.504Z,9.7
2023-10-05T04:45:34.644Z,9.7
2023-10-05T04:46:40.763Z,9.7
2023-10-05T04:47:46.914Z,9.7
2023-10-05T04:48:53.055Z,9.7
2023-10-05T04:49:59.255Z,9.7
2023-10-05T04:51:05.344Z,9.7
2023-10-05T04:52:11.481Z,9.7
2023-10-05T04:53:17.633Z,9.7
2023-10-05T04:54:22.788Z,9.7
2023-10-05T04:55:28.946Z,9.7
2023-10-05T04:56:35.070Z,9.7
2023-10-05T04:57:41.219Z,9.7
2023-10-05T04:59:53.511Z,9.7
2023-10-05T05:00:59.665Z,9.7
2023-10-05T05:02:05.818Z,9.7
2023-10-05T05:03:11.936Z,9.7
2023-10-05T05:04:18.079Z,9.6
2023-10-05T05:05:24.226Z,9.6
2023-10-05T05:07:36.510Z,9.7
2023-10-05T05:08:41.686Z,9.7
2023-10-05T05:09:47.814Z,9.7
2023-10-05T05:10:53.958Z,9.7
2023-10-05T05:12:00.097Z,9.8
2023-10-05T05:13:06.236Z,9.7
2023-10-05T05:14:11.434Z,9.7
2023-10-05T05:16:23.695Z,9.7
2023-10-05T05:17:28.994Z,9.7
2023-10-05T05:18:34.021Z,9.8
2023-10-05T05:19:40.168Z,9.8
2023-10-05T05:20:46.306Z,9.8
2023-10-05T05:21:52.461Z,9.8
2023-10-05T05:22:58.641Z,9.8
2023-10-05T05:24:04.759Z,9.8
2023-10-05T05:25:10.882Z,9.8
2023-10-05T05:26:17.025Z,9.7
2023-10-05T05:27:23.172Z,9.7
2023-10-05T05:28:28.339Z,9.7
2023-10-05T05:29:33.508Z,9.7
2023-10-05T05:30:39.680Z,9.7
2023-10-05T05:31:45.781Z,9.7
2023-10-05T05:32:51.930Z,9.7
2023-10-05T05:33:58.072Z,9.7
2023-10-05T05:35:04.206Z,9.8
2023-10-05T05:36:10.352Z,9.8
2023-10-05T05:37:16.496Z,9.8
2023-10-05T05:38:22.693Z,9.8
2023-10-05T05:39:28.812Z,9.8
2023-10-05T05:40:34.932Z,9.8
2023-10-05T05:41:41.102Z,9.8
2023-10-05T05:42:47.215Z,9.8
2023-10-05T05:43:52.398Z,9.8
2023-10-05T05:44:58.549Z,9.8
2023-10-05T05:46:04.657Z,9.8
2023-10-05T05:47:10.797Z,9.8
2023-10-05T05:48:16.955Z,9.8
2023-10-05T05:49:23.091Z,9.8
2023-10-05T05:50:29.254Z,9.8
2023-10-05T05:51:35.400Z,9.8
2023-10-05T05:52:41.525Z,9.8
2023-10-05T05:53:47.683Z,9.8
2023-10-05T05:54:53.818Z,9.8
2023-10-05T05:55:59.979Z,9.8
2023-10-05T05:57:06.094Z,9.8
2023-10-05T05:58:11.250Z,9.8
2023-10-05T05:59:17.400Z,9.8
2023-10-05T06:01:29.756Z,9.8
2023-10-05T06:02:35.817Z,9.8
2023-10-05T06:03:41.971Z,9.8
2023-10-05T06:04:48.308Z,9.9
2023-10-05T06:05:54.413Z,9.9
2023-10-05T06:07:00.569Z,9.9
2023-10-05T06:08:06.771Z,9.9
2023-10-05T06:09:12.827Z,9.9
2023-10-05T06:10:18.973Z,9.9
2023-10-05T06:11:25.108Z,9.9
2023-10-05T06:12:30.292Z,9.9
2023-10-05T06:13:36.445Z,10
2023-10-05T06:14:42.576Z,10
2023-10-05T06:15:48.700Z,10
2023-10-05T06:16:54.860Z,10
2023-10-05T06:18:00.987Z,10
2023-10-05T06:19:07.207Z,10
2023-10-05T06:20:13.273Z,10
2023-10-05T06:21:19.429Z,10.1
2023-10-05T06:22:25.633Z,10.1
2023-10-05T06:23:31.723Z,10.1
2023-10-05T06:24:37.937Z,10.1
2023-10-05T06:25:43.989Z,10.2
2023-10-05T06:26:49.165Z,10.2
2023-10-05T06:27:55.315Z,10.3
2023-10-05T06:29:01.458Z,10.3
2023-10-05T06:30:07.593Z,10.4
2023-10-05T06:31:13.719Z,10.4
2023-10-05T06:32:19.868Z,10.5
2023-10-05T06:33:26.012Z,10.5
2023-10-05T06:34:32.160Z,10.6
2023-10-05T06:35:38.298Z,10.6
2023-10-05T06:36:44.570Z,10.6
2023-10-05T06:37:50.761Z,10.7
2023-10-05T06:38:56.853Z,10.8
2023-10-05T06:40:03.006Z,10.8
2023-10-05T06:41:08.159Z,10.9
2023-10-05T06:42:14.304Z,10.9
2023-10-05T06:43:20.472Z,10.9
2023-10-05T06:44:26.587Z,10.9
2023-10-05T06:45:32.748Z,11
2023-10-05T06:46:38.880Z,11
2023-10-05T06:47:45.236Z,11
2023-10-05T06:48:51.176Z,11.1
2023-10-05T06:49:57.313Z,11.2
2023-10-05T06:51:03.570Z,11.3
2023-10-05T06:52:09.630Z,11.3
2023-10-05T06:53:15.746Z,11.4
2023-10-05T06:54:21.871Z,11.5
2023-10-05T06:55:27.036Z,11.6
2023-10-05T06:56:33.198Z,11.7
2023-10-05T06:57:39.326Z,11.7
2023-10-05T06:58:45.474Z,11.8
2023-10-05T06:59:51.629Z,11.9
2023-10-05T07:00:57.873Z,12
2023-10-05T07:02:03.930Z,12
2023-10-05T07:03:10.052Z,12.1
2023-10-05T07:04:16.191Z,12.2
2023-10-05T07:05:22.329Z,12.2
2023-10-05T07:06:28.486Z,12.3
2023-10-05T07:07:34.626Z,12.3
2023-10-05T07:08:40.867Z,12.3
2023-10-05T07:09:45.917Z,12.2
2023-10-05T07:10:52.058Z,12.2
2023-10-05T07:11:58.214Z,12.1
2023-10-05T07:13:04.339Z,12.1
2023-10-05T07:14:10.558Z,12
2023-10-05T07:15:16.640Z,12.1
2023-10-05T07:16:22.807Z,12.2
2023-10-05T07:17:28.960Z,12.3
2023-10-05T07:18:35.084Z,12.4
2023-10-05T07:19:41.212Z,12.5
2023-10-05T07:20:47.357Z,12.5
2023-10-05T07:21:53.514Z,12.4
2023-10-05T07:22:59.645Z,12.4
2023-10-05T07:24:04.788Z,12.4
2023-10-05T07:25:10.924Z,12.6
2023-10-05T07:26:17.080Z,12.7
2023-10-05T07:27:23.219Z,12.8
2023-10-05T07:28:29.365Z,13.1
2023-10-05T07:29:35.537Z,13.3
2023-10-05T07:30:41.688Z,13.4
2023-10-05T07:31:47.808Z,13.6
2023-10-05T07:32:54.007Z,13.7
2023-10-05T07:34:00.396Z,13.9
2023-10-05T07:35:06.384Z,13.8
2023-10-05T07:36:12.685Z,13.9
2023-10-05T07:37:18.766Z,14
2023-10-05T07:38:23.746Z,14.3
2023-10-05T07:39:30.147Z,14.8
2023-10-05T07:40:36.252Z,14.9
2023-10-05T07:41:42.369Z,14.9
2023-10-05T07:42:48.264Z,15.1
2023-10-05T07:43:54.720Z,15.1
2023-10-05T07:45:00.963Z,15.1
2023-10-05T07:46:06.667Z,15.1
2023-10-05T07:47:12.837Z,14.9
2023-10-05T07:48:18.957Z,14.9
2023-10-05T07:49:25.302Z,14.7
2023-10-05T07:50:31.498Z,14.7
2023-10-05T07:51:37.483Z,14.7
2023-10-05T07:52:42.830Z,14.6
2023-10-05T07:53:48.796Z,14.6
2023-10-05T07:54:55.009Z,14.7
2023-10-05T07:56:01.152Z,14.5
2023-10-05T07:57:07.414Z,14.4
2023-10-05T07:58:13.552Z,14.5
2023-10-05T07:59:19.727Z,14.6
2023-10-05T08:00:25.836Z,14.7
2023-10-05T08:01:32.024Z,14.8
2023-10-05T08:02:37.852Z,15
2023-10-05T08:03:44.257Z,15
2023-10-05T08:04:50.143Z,15.1
2023-10-05T08:05:56.348Z,15.1
2023-10-05T08:07:01.770Z,15.1
2023-10-05T08:08:08.042Z,15.3
2023-10-05T08:09:13.838Z,15.5
2023-10-05T08:10:20.325Z,15.7
2023-10-05T08:11:26.400Z,16.1
2023-10-05T08:12:32.248Z,16.4
2023-10-05T08:13:38.796Z,16.5
2023-10-05T08:14:44.789Z,16.6
2023-10-05T08:15:50.954Z,16.6
2023-10-05T08:16:57.129Z,16.7
2023-10-05T08:18:03.268Z,17
2023-10-05T08:19:09.374Z,17.2
2023-10-05T08:20:15.359Z,17.7
2023-10-05T08:21:20.632Z,17.9
2023-10-05T08:22:26.845Z,17.8
2023-10-05T08:23:32.962Z,17.6
2023-10-05T08:24:39.126Z,17.7
2023-10-05T08:25:45.191Z,17.6
2023-10-05T08:26:51.379Z,17.6
2023-10-05T08:27:57.564Z,17.5
2023-10-05T08:29:03.848Z,17.6
2023-10-05T08:30:09.910Z,17.7
2023-10-05T08:31:15.920Z,17.8
2023-10-05T08:32:22.035Z,17.9
2023-10-05T08:33:28.157Z,17.9
2023-10-05T08:34:34.399Z,17.8
2023-10-05T08:35:39.308Z,17.5
2023-10-05T08:36:45.676Z,17.4
2023-10-05T08:37:51.885Z,17.3
2023-10-05T08:38:58.017Z,17.2
2023-10-05T08:40:04.055Z,17.3
2023-10-05T08:41:10.216Z,17.4
2023-10-05T08:42:16.281Z,17.5
2023-10-05T08:43:22.434Z,17.6
2023-10-05T08:44:28.441Z,17.6
2023-10-05T08:45:34.612Z,17.7
2023-10-05T08:46:40.707Z,17.8
2023-10-05T08:47:46.910Z,17.9
2023-10-05T08:48:53.008Z,17.9
2023-10-05T08:49:58.433Z,18.2
2023-10-05T08:51:04.308Z,18.4
2023-10-05T08:52:10.709Z,18.4
2023-10-05T08:53:16.793Z,18.3
2023-10-05T08:54:23.077Z,18.3
2023-10-05T08:55:28.018Z,18.2
2023-10-05T08:56:34.276Z,18.3
2023-10-05T08:57:40.199Z,18.1
2023-10-05T08:58:46.328Z,18.1
2023-10-05T08:59:52.773Z,18.2
2023-10-05T09:00:58.877Z,18.4
2023-10-05T09:02:04.866Z,18.5
2023-10-05T09:03:10.920Z,18.7
2023-10-05T09:04:17.147Z,18.6
2023-10-05T09:05:23.584Z,18.6
2023-10-05T09:06:29.451Z,18.5
2023-10-05T09:07:35.499Z,18.6
2023-10-05T09:08:41.632Z,18.8
2023-10-05T09:09:47.914Z,19
2023-10-05T09:10:53.065Z,19.4
2023-10-05T09:11:59.054Z,19.7
2023-10-05T09:13:05.429Z,19.8
2023-10-05T09:14:11.498Z,20
2023-10-05T09:15:17.493Z,20.3
2023-10-05T09:16:23.851Z,20.1
2023-10-05T09:17:29.781Z,20
2023-10-05T09:18:36.122Z,19.9
2023-10-05T09:19:42.061Z,19.8
2023-10-05T09:20:48.442Z,19.6
2023-10-05T09:21:54.373Z,19.3
2023-10-05T09:23:00.659Z,19
2023-10-05T09:24:06.778Z,18.9
2023-10-05T09:25:11.978Z,18.8
2023-10-05T09:26:18.064Z,18.9
2023-10-05T09:27:24.230Z,19
2023-10-05T09:28:30.359Z,19.7
2023-10-05T09:30:42.714Z,19.8
2023-10-05T09:31:48.748Z,19.6
2023-10-05T09:32:54.888Z,19.4
2023-10-05T09:34:01.184Z,19.2
2023-10-05T09:35:07.299Z,19.2
2023-10-05T09:36:13.384Z,19
2023-10-05T09:37:19.551Z,19
2023-10-05T09:38:25.912Z,18.9
2023-10-05T09:39:30.746Z,18.8
2023-10-05T09:40:37.094Z,18.7
2023-10-05T09:41:43.143Z,18.6
2023-10-05T09:42:49.369Z,18.6
2023-10-05T09:43:55.317Z,18.7
2023-10-05T09:45:01.640Z,18.8
2023-10-05T09:46:07.829Z,18.8
2023-10-05T09:47:13.789Z,18.9
2023-10-05T09:48:19.972Z,18.9
2023-10-05T09:49:26.179Z,19
2023-10-05T09:50:32.202Z,19.1
2023-10-05T09:51:38.388Z,19.1
2023-10-05T09:52:44.532Z,19.6
2023-10-05T09:53:49.630Z,19.8
2023-10-05T09:54:55.795Z,19.9
2023-10-05T09:56:02.222Z,19.9
2023-10-05T09:57:08.060Z,20.3
2023-10-05T09:58:14.369Z,20.5
2023-10-05T09:59:20.499Z,20.8
2023-10-05T10:00:26.685Z,21.1
2023-10-05T10:01:32.892Z,21.7
2023-10-05T10:02:38.768Z,21.9
2023-10-05T10:03:45.026Z,22.4
2023-10-05T10:04:51.204Z,23.1
2023-10-05T10:05:57.322Z,22.8
2023-10-05T10:07:03.538Z,22.2
2023-10-05T10:08:08.591Z,21.7
2023-10-05T10:09:14.922Z,21.4
2023-10-05T10:10:20.853Z,21.5
2023-10-05T10:11:26.951Z,21.7
2023-10-05T10:12:33.260Z,22.2
2023-10-05T10:13:39.402Z,22.8
2023-10-05T10:14:45.598Z,23.5
2023-10-05T10:15:51.579Z,23.5
2023-10-05T10:16:57.842Z,23.5
2023-10-05T10:18:03.922Z,23.9
2023-10-05T10:19:10.229Z,24.4
2023-10-05T10:20:16.218Z,25.3
2023-10-05T10:21:22.338Z,25.3
2023-10-05T10:22:27.578Z,25.1
2023-10-05T10:23:33.534Z,24.9
2023-10-05T10:24:39.816Z,24.8
2023-10-05T10:25:45.923Z,23.9
2023-10-05T10:26:52.231Z,23.2
2023-10-05T10:27:58.416Z,22.7
2023-10-05T10:29:04.537Z,22.5
2023-10-05T10:30:10.655Z,22.2
2023-10-05T10:31:16.850Z,22
2023-10-05T10:32:22.960Z,21.8
2023-10-05T10:33:28.821Z,21.6
2023-10-05T10:34:35.048Z,21.6
2023-10-05T10:35:41.089Z,21.8
2023-10-05T10:36:46.435Z,22.7
2023-10-05T10:37:52.696Z,23.6
2023-10-05T10:38:58.881Z,24.3
2023-10-05T10:40:04.930Z,24.9
2023-10-05T10:41:11.302Z,25.2
2023-10-05T10:42:17.276Z,25.2
2023-10-05T10:43:23.385Z,24.8
2023-10-05T10:44:29.470Z,24.4
2023-10-05T10:45:35.718Z,23.9
2023-10-05T10:46:41.547Z,23.8
2023-10-05T10:47:47.801Z,23.5
2023-10-05T10:48:54.025Z,23.5
2023-10-05T10:50:00.113Z,23.8
2023-10-05T10:51:05.373Z,23.7
2023-10-05T10:52:11.572Z,23.7
2023-10-05T10:53:17.847Z,23.4
2023-10-05T10:54:23.564Z,23.4
2023-10-05T10:55:29.749Z,23.3
2023-10-05T10:56:36.220Z,23.4
2023-10-05T10:57:42.009Z,23.8
2023-10-05T10:58:48.321Z,24.3
2023-10-05T10:59:54.418Z,23.8
2023-10-05T11:01:00.577Z,23.4
2023-10-05T11:02:06.907Z,23.1
2023-10-05T11:03:12.776Z,23.6
2023-10-05T11:04:18.866Z,25.2
2023-10-05T11:05:24.153Z,25.7
2023-10-05T11:06:30.269Z,26
2023-10-05T11:07:36.322Z,26
2023-10-05T11:08:42.642Z,25.8
2023-10-05T11:09:48.618Z,26.3
2023-10-05T11:10:54.778Z,25.8
2023-10-05T11:12:00.941Z,25.9
2023-10-05T11:13:07.071Z,26.1
2023-10-05T11:14:13.166Z,25.9
2023-10-05T11:15:19.520Z,25.8
2023-10-05T11:16:25.944Z,25.8
2023-10-05T11:17:31.639Z,25.8
2023-10-05T11:18:37.778Z,25.6
2023-10-05T11:19:42.934Z,25.8
2023-10-05T11:20:49.159Z,25.9
2023-10-05T11:21:55.208Z,26.1
2023-10-05T11:23:01.340Z,26.5
2023-10-05T11:24:07.927Z,26.9
2023-10-05T11:25:13.677Z,27.3
2023-10-05T11:26:19.779Z,28.1
2023-10-05T11:27:25.947Z,28.2
2023-10-05T11:28:32.137Z,28.5
2023-10-05T11:29:38.282Z,29.3
2023-10-05T11:30:44.492Z,29.9
2023-10-05T11:32:56.644Z,28
2023-10-05T11:34:01.820Z,26.6
2023-10-05T11:35:08.018Z,26.2
2023-10-05T11:36:14.107Z,25.6
2023-10-05T11:37:20.368Z,25.2
2023-10-05T11:38:26.478Z,24.8
2023-10-05T11:39:32.707Z,24.6
2023-10-05T11:40:38.819Z,24.5
2023-10-05T11:41:44.915Z,24.3
2023-10-05T11:42:50.985Z,24.1
2023-10-05T11:43:57.074Z,24
2023-10-05T11:45:03.230Z,23.9
2023-10-05T11:46:09.562Z,23.7
2023-10-05T11:47:15.695Z,23.7
2023-10-05T11:48:20.661Z,23.7
2023-10-05T11:49:26.803Z,23.5
2023-10-05T11:50:33.023Z,23.5
2023-10-05T11:51:39.083Z,23.3
2023-10-05T11:52:45.429Z,23
2023-10-05T11:53:51.413Z,22.7
2023-10-05T11:54:57.563Z,22.5
2023-10-05T11:56:03.663Z,22.3
2023-10-05T11:57:09.925Z,22.2
2023-10-05T11:58:15.988Z,22
2023-10-05T11:59:22.112Z,22
2023-10-05T12:00:28.233Z,21.9
2023-10-05T12:01:34.401Z,21.9
2023-10-05T12:02:39.582Z,21.7
2023-10-05T12:03:45.690Z,21.7
2023-10-05T12:04:51.909Z,21.7
2023-10-05T12:05:57.966Z,21.7
2023-10-05T12:07:04.107Z,21.8
2023-10-05T12:08:10.250Z,21.9
2023-10-05T12:09:16.479Z,22.1
2023-10-05T12:10:22.601Z,22.2
2023-10-05T12:11:28.674Z,22.4
2023-10-05T12:12:34.888Z,22.5
2023-10-05T12:13:40.983Z,22.6
2023-10-05T12:14:47.118Z,22.7
2023-10-05T12:15:53.317Z,22.9
2023-10-05T12:16:58.426Z,23.1
2023-10-05T12:18:04.630Z,23.3
2023-10-05T12:19:10.688Z,23.2
2023-10-05T12:20:16.829Z,23.1
2023-10-05T12:21:22.983Z,23.2
2023-10-05T12:22:29.136Z,23.2
2023-10-05T12:23:35.280Z,23.2
2023-10-05T12:24:41.901Z,23.2
2023-10-05T12:25:47.743Z,23.2
2023-10-05T12:26:53.856Z,23.1
2023-10-05T12:28:00.181Z,22.8
2023-10-05T12:29:06.122Z,22.8
2023-10-05T12:30:12.372Z,22.6
2023-10-05T12:31:17.444Z,22.5
2023-10-05T12:33:29.710Z,22.4
2023-10-05T12:34:35.862Z,22.4
2023-10-05T12:35:42.121Z,22.5
2023-10-05T12:36:47.151Z,22.5
2023-10-05T12:37:53.321Z,22.5
2023-10-05T12:38:59.448Z,22.3
2023-10-05T12:40:05.646Z,22.3
2023-10-05T12:41:11.746Z,22.1
2023-10-05T12:42:17.971Z,22
2023-10-05T12:43:24.110Z,21.9
2023-10-05T12:44:30.156Z,21.8
2023-10-05T12:45:36.354Z,21.7
2023-10-05T12:46:42.535Z,21.7
2023-10-05T12:47:48.729Z,21.6
2023-10-05T12:48:54.786Z,21.5
2023-10-05T12:50:00.934Z,21.6
2023-10-05T12:51:06.040Z,21.6
2023-10-05T12:52:12.191Z,21.5
2023-10-05T12:53:18.357Z,21.5
2023-10-05T12:54:24.484Z,21.4
2023-10-05T12:55:30.613Z,21.5
2023-10-05T12:56:36.796Z,21.5
2023-10-05T12:57:43.025Z,21.5
2023-10-05T12:58:49.128Z,21.4
2023-10-05T12:59:55.400Z,21.4
2023-10-05T13:01:01.328Z,21.4
2023-10-05T13:02:07.517Z,21.4
2023-10-05T13:03:13.622Z,21.4
2023-10-05T13:04:19.776Z,21.5
2023-10-05T13:05:24.930Z,21.6
2023-10-05T13:06:31.055Z,21.7
2023-10-05T13:07:37.411Z,21.7
2023-10-05T13:08:43.465Z,21.8
2023-10-05T13:10:55.945Z,21.7
2023-10-05T13:12:01.977Z,21.8
2023-10-05T13:13:07.995Z,21.8
2023-10-05T13:14:14.270Z,21.8
2023-10-05T13:15:20.334Z,21.8
2023-10-05T13:16:26.754Z,21.8
2023-10-05T13:17:32.617Z,21.8
2023-10-05T13:18:38.861Z,21.8
2023-10-05T13:19:43.937Z,21.8
2023-10-05T13:20:50.149Z,21.8
2023-10-05T13:21:55.387Z,21.9
2023-10-05T13:23:00.414Z,21.8
2023-10-05T13:24:06.580Z,21.8
2023-10-05T13:25:12.675Z,21.6
2023-10-05T13:26:18.838Z,21.5
2023-10-05T13:27:24.979Z,21.4
2023-10-05T13:28:31.215Z,21.4
2023-10-05T13:29:37.294Z,21.4
2023-10-05T13:30:43.444Z,21.3
2023-10-05T13:31:49.601Z,21.3
2023-10-05T13:32:55.717Z,21.3
2023-10-05T13:34:01.859Z,21.3
2023-10-05T13:35:08.052Z,21.3
2023-10-05T13:36:14.117Z,21.2
2023-10-05T13:37:19.274Z,21.3
2023-10-05T13:38:25.450Z,21.3
2023-10-05T13:39:31.632Z,21.4
2023-10-05T13:40:37.734Z,21.4
2023-10-05T13:41:43.845Z,21.4
2023-10-05T13:42:50.012Z,21.5
2023-10-05T13:43:55.278Z,21.5
2023-10-05T13:45:00.343Z,21.3
2023-10-05T13:47:11.766Z,21.1
2023-10-05T13:48:17.777Z,21
2023-10-05T13:49:23.933Z,20.9
2023-10-05T13:50:30.091Z,20.8
2023-10-05T13:51:36.475Z,20.7
2023-10-05T13:52:42.371Z,20.6
2023-10-05T13:53:48.521Z,20.6
2023-10-05T13:54:54.772Z,20.6
2023-10-05T13:56:00.874Z,20.5
2023-10-05T13:57:06.996Z,20.5
2023-10-05T13:58:13.192Z,20.6
2023-10-05T13:59:19.204Z,20.7
2023-10-05T14:00:24.365Z,20.7
2023-10-05T14:01:30.515Z,20.7
2023-10-05T14:02:36.757Z,20.7
2023-10-05T14:03:42.869Z,20.7
2023-10-05T14:04:49.015Z,20.7
2023-10-05T14:05:55.106Z,20.7
2023-10-05T14:07:01.244Z,20.6
2023-10-05T14:08:07.416Z,20.5
2023-10-05T14:09:13.615Z,20.4
2023-10-05T14:10:19.674Z,20.3
2023-10-05T14:11:25.807Z,20.3
2023-10-05T14:12:32.001Z,20.3
2023-10-05T14:13:38.088Z,20.4
2023-10-05T14:14:43.296Z,20.3
2023-10-05T14:15:49.420Z,20.3
2023-10-05T14:16:55.581Z,20.4
2023-10-05T14:18:01.701Z,20.4
2023-10-05T14:19:07.839Z,20.4
2023-10-05T14:20:13.973Z,20.5
2023-10-05T14:21:20.171Z,20.5
2023-10-05T14:22:26.251Z,20.5
2023-10-05T14:23:32.494Z,20.5
2023-10-05T14:24:38.661Z,20.4
2023-10-05T14:25:44.732Z,20.3
2023-10-05T14:26:50.965Z,20.3
2023-10-05T14:27:57.094Z,20.3
2023-10-05T14:29:02.116Z,20.3
2023-10-05T14:30:08.259Z,20.2
2023-10-05T14:31:14.444Z,20.2
2023-10-05T14:32:20.565Z,20.1
2023-10-05T14:33:26.748Z,20.1
2023-10-05T14:34:32.912Z,20
2023-10-05T14:35:38.971Z,20
2023-10-05T14:36:45.128Z,20
2023-10-05T14:37:51.268Z,20
2023-10-05T14:38:57.415Z,20.1
2023-10-05T14:40:03.610Z,20.1
2023-10-05T14:41:09.684Z,20.1
2023-10-05T14:42:15.836Z,20.1
2023-10-05T14:43:20.994Z,20.1
2023-10-05T14:44:27.184Z,20
2023-10-05T14:45:33.298Z,20
2023-10-05T14:46:39.442Z,20
2023-10-05T14:47:45.645Z,20.1
2023-10-05T14:48:51.737Z,20
2023-10-05T14:49:57.945Z,20.1
2023-10-05T14:51:04.174Z,20.2
2023-10-05T14:52:10.239Z,20.3
2023-10-05T14:53:16.288Z,20.3
2023-10-05T14:54:22.419Z,20.4
2023-10-05T14:55:28.721Z,20.4
2023-10-05T14:56:34.833Z,20.4
2023-10-05T14:57:39.942Z,20.4
2023-10-05T14:58:46.006Z,20.4
2023-10-05T14:59:52.202Z,20.3
2023-10-05T15:00:58.373Z,20.3
2023-10-05T15:02:04.452Z,20.2
2023-10-05T15:03:10.606Z,20.2
2023-10-05T15:04:16.751Z,20
2023-10-05T15:05:22.983Z,19.9
2023-10-05T15:06:29.027Z,19.9
2023-10-05T15:07:35.335Z,19.8
2023-10-05T15:08:41.357Z,19.7